createdAt,value
2019-01-06T00:00:05.397Z,2.03
2019-01-06T00:03:33.544Z,2.10
2019-01-06T00:07:03.075Z,2.10
2019-01-06T00:10:35.251Z,2.11
2019-01-06T00:14:10.811Z,2.08
2019-01-06T00:17:52.511Z,2.09
2019-01-06T00:21:19.563Z,2.11
2019-01-06T00:24:55.524Z,2.13
2019-01-06T00:28:29.500Z,2.04
2019-01-06T00:31:59.423Z,2.03
2019-01-06T00:35:33.466Z,2.02
2019-01-06T00:39:02.041Z,2.13
2019-01-06T00:42:29.327Z,2.12
2019-01-06T00:45:54.947Z,2.22
2019-01-06T00:53:19.974Z,2.29
2019-01-06T00:56:51.542Z,2.29
2019-01-06T01:00:28.931Z,2.31
2019-01-06T01:03:54.559Z,2.36
2019-01-06T01:07:48.435Z,2.24
2019-01-06T01:11:09.754Z,2.10
2019-01-06T01:14:43.872Z,2.17
2019-01-06T01:18:16.666Z,2.26
2019-01-06T01:21:40.192Z,2.34
2019-01-06T01:25:08.822Z,2.47
2019-01-06T01:28:41.820Z,2.55
2019-01-06T01:32:15.219Z,2.67
2019-01-06T01:39:23.396Z,2.90
2019-01-06T01:42:58.911Z,2.96
2019-01-06T01:46:25.556Z,2.98
2019-01-06T01:49:58.661Z,3.03
2019-01-06T01:53:49.214Z,3.06
2019-01-06T01:57:23.443Z,3.00
2019-01-06T02:01:09.206Z,3.03
2019-01-06T02:04:39.703Z,3.04
2019-01-06T02:08:17.918Z,3.18
2019-01-06T02:11:39.965Z,3.20
2019-01-06T02:15:16.869Z,3.22
2019-01-06T02:18:42.868Z,3.31
2019-01-06T02:22:09.857Z,3.37
2019-01-06T02:25:37.185Z,3.39
2019-01-06T02:29:06.882Z,3.35
2019-01-06T02:32:33.975Z,3.28
2019-01-06T02:36:29.579Z,3.30
2019-01-06T02:40:06.461Z,3.32
2019-01-06T03:04:15.949Z,3.08
2019-01-06T03:07:48.219Z,3.15
2019-01-06T03:11:27.361Z,3.14
2019-01-06T03:14:50.724Z,3.25
2019-01-06T03:18:24.637Z,3.24
2019-01-06T03:21:53.113Z,3.24
2019-01-06T03:25:19.359Z,3.08
2019-01-06T03:36:46.571Z,2.67
2019-01-06T03:40:09.178Z,2.76
2019-01-06T03:43:34.845Z,2.88
2019-01-06T03:47:16.605Z,2.96
2019-01-06T03:50:47.367Z,3.08
2019-01-06T03:54:24.367Z,3.11
2019-01-06T03:58:22.351Z,3.16
2019-01-06T04:01:54.708Z,3.16
2019-01-06T04:05:30.387Z,3.21
2019-01-06T04:09:00.276Z,3.12
2019-01-06T04:12:28.988Z,2.97
2019-01-06T04:16:13.873Z,2.92
2019-01-06T04:19:44.938Z,2.84
2019-01-06T04:23:15.218Z,2.88
2019-01-06T04:30:20.366Z,2.82
2019-01-06T04:33:52.617Z,2.75
2019-01-06T04:37:28.212Z,2.79
2019-01-06T04:40:51.696Z,2.76
2019-01-06T04:44:14.228Z,2.56
2019-01-06T04:47:37.076Z,2.55
2019-01-06T04:51:04.944Z,2.43
2019-01-06T04:54:23.238Z,2.56
2019-01-06T04:58:01.662Z,2.67
2019-01-06T05:01:46.748Z,2.78
2019-01-06T05:05:13.741Z,2.90
2019-01-06T05:08:42.786Z,2.89
2019-01-06T05:12:12.003Z,2.72
2019-01-06T05:15:54.712Z,2.67
2019-01-06T05:19:39.790Z,2.84
2019-01-06T05:23:03.112Z,2.85
2019-01-06T05:26:25.956Z,2.91
2019-01-06T05:30:10.991Z,3.03
2019-01-06T05:33:33.947Z,3.10
2019-01-06T05:37:12.618Z,3.27
2019-01-06T05:40:49.153Z,3.38
2019-01-06T05:44:07.297Z,3.47
2019-01-06T05:47:32.483Z,3.59
2019-01-06T05:51:11.337Z,3.64
2019-01-06T05:58:21.092Z,3.75
2019-01-06T06:01:50.368Z,3.77
2019-01-06T06:05:41.069Z,3.82
2019-01-06T06:09:16.067Z,3.81
2019-01-06T06:16:40.205Z,3.85
2019-01-06T06:20:23.001Z,3.78
2019-01-06T06:23:49.511Z,3.82
2019-01-06T06:27:28.363Z,3.85
2019-01-06T06:30:51.841Z,3.91
2019-01-06T06:34:32.216Z,3.92
2019-01-06T06:37:54.657Z,3.81
2019-01-06T06:41:32.771Z,3.85
2019-01-06T06:44:57.981Z,3.93
2019-01-06T06:48:33.327Z,3.97
2019-01-06T06:52:02.948Z,3.98
2019-01-06T06:55:41.101Z,4.00
2019-01-06T06:59:10.974Z,4.04
2019-01-06T07:03:18.985Z,4.10
2019-01-06T07:06:50.273Z,4.17
2019-01-06T07:10:19.653Z,4.21
2019-01-06T07:13:56.488Z,4.31
2019-01-06T07:18:16.726Z,4.31
2019-01-06T07:21:47.771Z,4.37
2019-01-06T07:25:20.059Z,4.43
2019-01-06T07:28:53.356Z,4.50
2019-01-06T07:32:27.477Z,4.55
2019-01-06T07:35:50.057Z,4.57
2019-01-06T07:39:19.844Z,4.47
2019-01-06T07:42:46.350Z,4.30
2019-01-06T07:46:08.721Z,4.36
2019-01-06T07:49:39.124Z,4.41
2019-01-06T07:53:01.630Z,4.41
2019-01-06T07:56:41.631Z,4.47
2019-01-06T07:59:58.584Z,4.51
2019-01-06T08:03:34.295Z,4.53
2019-01-06T08:06:59.876Z,4.63
2019-01-06T08:10:30.675Z,4.65
2019-01-06T08:14:04.494Z,4.62
2019-01-06T08:17:41.722Z,4.61
2019-01-06T08:21:11.593Z,4.62
2019-01-06T08:28:49.419Z,4.60
2019-01-06T08:32:11.279Z,4.61
2019-01-06T08:36:01.986Z,4.62
2019-01-06T08:39:34.900Z,4.64
2019-01-06T08:43:16.490Z,4.64
2019-01-06T08:46:48.025Z,4.66
2019-01-06T08:50:25.907Z,4.69
2019-01-06T08:53:52.392Z,4.72
2019-01-06T08:57:13.747Z,4.77
2019-01-06T09:00:40.036Z,4.75
2019-01-06T09:04:12.902Z,4.78
2019-01-06T09:07:38.427Z,4.80
2019-01-06T09:11:22.842Z,4.79
2019-01-06T09:14:45.782Z,4.77
2019-01-06T09:18:27.940Z,4.79
2019-01-06T09:22:01.243Z,4.77
2019-01-06T09:25:30.654Z,4.79
2019-01-06T09:29:02.143Z,4.89
2019-01-06T09:32:25.419Z,4.88
2019-01-06T09:35:57.188Z,4.91
2019-01-06T09:39:40.830Z,4.92
2019-01-06T09:43:04.999Z,4.94
2019-01-06T09:46:34.425Z,4.98
2019-01-06T09:50:12.674Z,5.01
2019-01-06T09:53:54.578Z,5.06
2019-01-06T09:57:16.531Z,5.03
2019-01-06T10:00:42.871Z,5.01
2019-01-06T10:04:14.224Z,5.08
2019-01-06T10:07:36.612Z,5.07
2019-01-06T10:10:58.544Z,5.14
2019-01-06T10:14:21.090Z,5.20
2019-01-06T10:17:49.789Z,5.21
2019-01-06T10:21:12.341Z,5.27
2019-01-06T10:24:38.952Z,5.28
2019-01-06T10:28:10.037Z,5.27
2019-01-06T10:31:40.956Z,5.34
2019-01-06T10:34:58.792Z,5.37
2019-01-06T10:38:21.277Z,5.45
2019-01-06T10:41:46.699Z,5.48
2019-01-06T10:45:15.129Z,5.54
2019-01-06T10:48:38.803Z,5.58
2019-01-06T10:52:02.273Z,5.67
2019-01-06T10:55:34.790Z,5.71
2019-01-06T10:58:59.792Z,5.74
2019-01-06T11:02:26.060Z,5.81
2019-01-06T11:05:51.616Z,5.93
2019-01-06T11:09:17.885Z,5.97
2019-01-06T11:12:47.388Z,6.07
2019-01-06T11:16:15.281Z,6.16
2019-01-06T11:19:37.710Z,6.10
2019-01-06T11:23:09.650Z,6.10
2019-01-06T11:26:33.255Z,6.18
2019-01-06T11:30:04.071Z,6.14
2019-01-06T11:33:29.262Z,6.17
2019-01-06T11:37:00.666Z,6.22
2019-01-06T11:40:29.056Z,6.34
2019-01-06T11:43:58.336Z,6.38
2019-01-06T11:47:32.845Z,6.48
2019-01-06T11:50:55.203Z,6.51
2019-01-06T11:54:39.618Z,6.55
2019-01-06T11:58:12.547Z,6.57
2019-01-06T12:01:37.590Z,6.65
2019-01-06T12:05:16.245Z,6.66
2019-01-06T12:08:45.819Z,6.76
2019-01-06T12:12:04.919Z,6.86
2019-01-06T12:15:34.323Z,6.84
2019-01-06T12:18:59.611Z,6.86
2019-01-06T12:22:26.330Z,6.96
2019-01-06T12:26:01.101Z,6.96
2019-01-06T12:29:23.417Z,6.96
2019-01-06T12:32:58.962Z,6.99
2019-01-06T12:36:22.948Z,7.06
2019-01-06T12:39:53.725Z,7.18
2019-01-06T12:43:19.077Z,7.17
2019-01-06T12:46:44.612Z,7.17
2019-01-06T12:50:17.750Z,7.23
2019-01-06T12:53:48.587Z,7.26
2019-01-06T12:57:18.098Z,7.28
2019-01-06T13:00:40.253Z,7.26
2019-01-06T13:04:08.348Z,7.25
2019-01-06T13:07:30.866Z,7.26
2019-01-06T13:11:03.235Z,7.25
2019-01-06T13:14:25.555Z,7.21
2019-01-06T13:17:46.996Z,7.17
2019-01-06T13:21:09.441Z,7.15
2019-01-06T13:24:54.460Z,7.17
2019-01-06T13:28:16.447Z,7.12
2019-01-06T13:31:48.770Z,7.08
2019-01-06T13:35:15.336Z,7.10
2019-01-06T13:38:54.424Z,7.11
2019-01-06T13:42:19.732Z,7.14
2019-01-06T13:45:45.043Z,7.23
2019-01-06T13:49:35.971Z,7.16
2019-01-06T13:53:04.445Z,7.15
2019-01-06T13:56:42.830Z,7.17
2019-01-06T14:00:08.153Z,7.16
2019-01-06T14:03:40.865Z,7.11
2019-01-06T14:07:05.088Z,7.16
2019-01-06T14:10:41.835Z,7.11
2019-01-06T14:14:10.777Z,7.08
2019-01-06T14:17:37.783Z,7.06
2019-01-06T14:21:03.341Z,7.00
2019-01-06T14:24:45.128Z,7.00
2019-01-06T14:28:17.587Z,7.02
2019-01-06T14:32:05.557Z,7.04
2019-01-06T14:35:34.018Z,7.04
2019-01-06T14:38:56.464Z,6.99
2019-01-06T14:42:52.703Z,6.98
2019-01-06T14:46:22.535Z,6.95
2019-01-06T14:50:05.923Z,6.97
2019-01-06T14:53:53.057Z,6.93
2019-01-06T14:57:32.425Z,6.93
2019-01-06T15:01:02.652Z,6.87
2019-01-06T15:04:27.453Z,6.84
2019-01-06T15:07:56.453Z,6.84
2019-01-06T15:11:41.225Z,6.84
2019-01-06T15:15:17.184Z,6.81
2019-01-06T15:18:47.336Z,6.79
2019-01-06T15:22:20.508Z,6.75
2019-01-06T15:25:43.020Z,6.78
2019-01-06T15:29:12.092Z,6.74
2019-01-06T15:32:40.240Z,6.73
2019-01-06T15:36:05.556Z,6.74
2019-01-06T15:39:35.172Z,6.77
2019-01-06T15:43:09.881Z,6.82
2019-01-06T15:46:44.428Z,6.77
2019-01-06T15:50:12.568Z,6.74
2019-01-06T15:57:34.028Z,6.77
2019-01-06T16:01:04.774Z,6.79
2019-01-06T16:09:01.547Z,6.79
2019-01-06T16:12:36.985Z,6.79
2019-01-06T16:16:00.906Z,6.82
2019-01-06T16:19:29.051Z,6.81
2019-01-06T16:27:21.357Z,6.82
2019-01-06T16:30:58.825Z,6.82
2019-01-06T16:34:24.238Z,6.83
2019-01-06T16:37:55.202Z,6.82
2019-01-06T16:41:34.150Z,6.83
2019-01-06T16:45:08.033Z,6.86
2019-01-06T16:48:46.768Z,6.91
2019-01-06T16:52:09.235Z,6.92
2019-01-06T16:55:31.958Z,6.90
2019-01-06T16:59:12.979Z,6.92
2019-01-06T17:02:37.774Z,6.90
2019-01-06T17:06:12.209Z,6.90
2019-01-06T17:09:40.171Z,6.89
2019-01-06T17:13:18.601Z,6.93
2019-01-06T17:16:50.872Z,6.89
2019-01-06T17:20:26.016Z,6.86
2019-01-06T17:27:17.819Z,6.84
2019-01-06T17:30:48.856Z,6.93
2019-01-06T17:34:16.971Z,6.96
2019-01-06T17:37:40.871Z,6.89
2019-01-06T17:41:20.121Z,6.87
2019-01-06T17:44:40.415Z,6.84
2019-01-06T17:48:10.173Z,6.82
2019-01-06T17:51:51.906Z,6.80
2019-01-06T17:55:12.576Z,6.81
2019-01-06T17:58:45.882Z,6.83
2019-01-06T18:02:14.506Z,6.79
2019-01-06T18:05:50.079Z,6.79
2019-01-06T18:09:16.172Z,6.76
2019-01-06T18:12:48.281Z,6.78
2019-01-06T18:16:12.301Z,6.79
2019-01-06T18:19:47.813Z,6.78
2019-01-06T18:23:11.394Z,6.78
2019-01-06T18:26:33.382Z,6.81
2019-01-06T18:29:59.555Z,6.82
2019-01-06T18:33:26.557Z,6.81
2019-01-06T18:37:09.719Z,6.82
2019-01-06T18:40:42.318Z,6.83
2019-01-06T18:44:11.734Z,6.90
2019-01-06T18:47:48.008Z,6.88
2019-01-06T18:51:17.626Z,6.86
2019-01-06T18:54:40.067Z,6.86
2019-01-06T18:58:05.253Z,6.90
2019-01-06T19:01:47.569Z,6.90
2019-01-06T19:08:48.463Z,6.89
2019-01-06T19:12:12.945Z,6.98
2019-01-06T19:15:45.328Z,6.90
2019-01-06T19:19:13.457Z,6.89
2019-01-06T19:26:09.339Z,6.89
2019-01-06T19:29:34.897Z,6.88
2019-01-06T19:33:22.932Z,6.90
2019-01-06T19:36:43.597Z,6.88
2019-01-06T19:40:09.253Z,6.87
2019-01-06T19:43:44.918Z,6.92
2019-01-06T19:51:01.029Z,6.86
2019-01-06T19:54:25.102Z,6.90
2019-01-06T19:57:49.314Z,6.85
2019-01-06T20:01:23.781Z,6.82
2019-01-06T20:04:46.985Z,6.84
2019-01-06T20:08:11.180Z,6.84
2019-01-06T20:11:37.325Z,6.83
2019-01-06T20:14:59.568Z,6.84
2019-01-06T20:22:29.430Z,6.82
2019-01-06T20:26:03.155Z,6.79
2019-01-06T20:29:41.648Z,6.78
2019-01-06T20:33:08.703Z,6.81
2019-01-06T20:36:34.194Z,6.83
2019-01-06T20:40:04.077Z,6.83
2019-01-06T20:43:39.787Z,6.90
2019-01-06T20:47:15.553Z,6.94
2019-01-06T20:51:10.136Z,6.89
2019-01-06T20:55:03.419Z,6.86
2019-01-06T20:58:53.491Z,6.84
2019-01-06T21:02:52.999Z,6.87
2019-01-06T21:06:26.475Z,6.84
2019-01-06T21:13:48.790Z,6.85
2019-01-06T21:17:18.405Z,6.85
2019-01-06T21:21:13.199Z,6.87
2019-01-06T21:25:01.265Z,6.87
2019-01-06T21:32:12.216Z,6.87
2019-01-06T21:35:45.398Z,6.85
2019-01-06T21:39:12.502Z,6.89
2019-01-06T21:42:49.988Z,6.87
2019-01-06T21:46:14.597Z,6.94
2019-01-06T21:49:38.172Z,6.91
2019-01-06T21:53:07.250Z,6.87
2019-01-06T21:56:36.786Z,6.84
2019-01-06T22:00:00.276Z,6.84
2019-01-06T22:03:23.362Z,6.82
2019-01-06T22:06:59.358Z,6.80
2019-01-06T22:18:12.458Z,6.77
2019-01-06T22:21:50.983Z,6.83
2019-01-06T22:25:25.990Z,6.79
2019-01-06T22:29:03.647Z,6.79
2019-01-06T22:32:26.851Z,6.79
2019-01-06T22:35:52.304Z,6.80
2019-01-06T22:39:19.719Z,6.83
2019-01-06T22:42:39.911Z,6.79
2019-01-06T22:46:02.961Z,6.84
2019-01-06T22:49:25.302Z,6.78
2019-01-06T22:52:50.147Z,6.73
2019-01-06T22:56:18.304Z,6.72
2019-01-06T23:00:01.275Z,6.67
2019-01-06T23:03:28.548Z,6.67
2019-01-06T23:07:04.581Z,6.66
2019-01-06T23:10:58.782Z,6.69
2019-01-06T23:14:23.794Z,6.70
2019-01-06T23:17:52.075Z,6.67
2019-01-06T23:21:14.579Z,6.61
2019-01-06T23:33:28.155Z,6.58
2019-01-06T23:36:53.180Z,6.59
2019-01-06T23:40:31.475Z,6.57
2019-01-06T23:44:00.913Z,6.57
2019-01-06T23:47:20.226Z,6.59
2019-01-06T23:51:18.023Z,6.55
2019-01-06T23:58:13.091Z,6.53
